Avon, Pennsylvania
Current Conditions -  °F | °C
As of 10:20 AM on Wednesday 26 Nov 2014 (Local Time) from KMUI Reporting Station
Light Snow Light Snow  
Wind Chill:   Ceiling: 900
Heat Index:   Visibility: 0.75mi
Dew Point:   Wind: 0mph
Humidity: 100%   Direction: NA
Pressure: 30.11"   Gusts: NA
Location:  40.2957°N, 76.4189°W
Report Text: KMUI 261520Z AUTO 00000KT 3/4SM -SN BR VV009 00/00 A3011 RMK AO2 CIG 007V009 RVRNO $
Loading
Personal Weather Stations






























Interactive Weather Map New forecast layout! Learn more

10-Day Weather Forecast

Advertisements
Track Severe Weather on mobile